Time;durP1;ratioP1;P1;durP2;ratioP2;P2;SDS_P1;SDS_P2;PMS_P1;PMS_P2;Temp;Humidity;BMP_temperature;BMP_pressure;BME280_temperature;BME280_humidity;BME280_pressure;Samples;Min_cycle;Max_cycle;Signal;HPM_P1;HPM_P2
2021/11/24 00:01:31;;;;;;;9.18;8.28;;;;;;;8.98;55.54;102482.23;1698020;83;21054;-60
2021/11/24 00:03:57;;;;;;;9.15;7.80;;;;;;;9.00;55.44;102482.66;1697978;84;21089;-60
2021/11/24 00:06:24;;;;;;;9.03;8.13;;;;;;;9.02;55.39;102484.00;1698223;84;21002;-65
2021/11/24 00:08:50;;;;;;;9.40;8.35;;;;;;;9.07;55.30;102484.91;1700876;84;21062;-60
2021/11/24 00:11:17;;;;;;;8.33;7.53;;;;;;;9.10;55.03;102490.16;1700511;84;21498;-60
2021/11/24 00:13:44;;;;;;;7.97;7.25;;;;;;;9.11;54.79;102481.50;1698424;84;21061;-60
2021/11/24 00:16:12;;;;;;;8.98;7.72;;;;;;;9.12;54.71;102476.77;1699057;83;21069;-59
2021/11/24 00:18:39;;;;;;;7.90;7.20;;;;;;;9.15;54.52;102479.83;1700236;83;21545;-61
2021/11/24 00:21:07;;;;;;;8.05;7.25;;;;;;;9.16;54.20;102487.63;1700386;84;21023;-57
2021/11/24 00:23:35;;;;;;;8.40;7.58;;;;;;;9.14;53.99;102488.04;1684995;84;21061;-56
2021/11/24 00:26:02;;;;;;;9.35;7.78;;;;;;;9.13;54.15;102486.73;1699764;84;21066;-56
2021/11/24 00:28:29;;;;;;;8.55;7.67;;;;;;;9.12;54.13;102485.86;1700373;84;21022;-57
2021/11/24 00:30:57;;;;;;;8.90;8.00;;;;;;;9.13;54.23;102487.58;1700669;84;21065;-59
2021/11/24 00:33:23;;;;;;;7.80;7.03;;;;;;;9.15;54.17;102493.66;1687896;84;21046;-57
2021/11/24 00:35:50;;;;;;;8.15;7.30;;;;;;;9.11;54.12;102489.29;1701047;84;21062;-55
2021/11/24 00:38:17;;;;;;;8.23;7.42;;;;;;;9.10;54.19;102490.16;1699295;84;21448;-60
2021/11/24 00:40:44;;;;;;;7.80;7.00;;;;;;;9.09;54.35;102485.80;1698169;84;21070;-58
2021/11/24 00:43:10;;;;;;;7.95;7.15;;;;;;;9.09;54.24;102491.00;1699578;83;21050;-59
2021/11/24 00:45:37;;;;;;;7.90;7.15;;;;;;;9.08;54.26;102496.18;1695678;84;21025;-55
2021/11/24 00:48:05;;;;;;;7.75;6.87;;;;;;;9.08;54.38;102491.87;1702674;83;21550;-62
2021/11/24 00:50:34;;;;;;;7.50;6.67;;;;;;;9.09;54.36;102491.00;1699241;84;21034;-55
2021/11/24 00:53:00;;;;;;;7.17;6.47;;;;;;;9.12;54.35;102491.05;1697545;83;20995;-55
2021/11/24 00:55:27;;;;;;;7.25;6.40;;;;;;;9.15;54.36;102488.47;1698007;83;20955;-56
2021/11/24 00:57:55;;;;;;;8.03;7.20;;;;;;;9.18;54.20;102488.52;1694044;83;21034;-55
2021/11/24 01:00:22;;;;;;;9.98;7.00;;;;;;;9.19;54.16;102491.55;1697510;84;21042;-59
2021/11/24 01:02:49;;;;;;;8.15;6.87;;;;;;;9.22;54.06;102494.19;1699957;83;20991;-58
2021/11/24 01:05:16;;;;;;;7.25;6.50;;;;;;;9.22;54.02;102489.00;1700145;84;21006;-57
2021/11/24 01:07:43;;;;;;;7.55;6.72;;;;;;;9.23;53.97;102486.86;1700702;84;21031;-59
2021/11/24 01:10:10;;;;;;;7.05;6.33;;;;;;;9.24;53.83;102492.91;1699927;84;21042;-55
2021/11/24 01:12:37;;;;;;;8.80;6.85;;;;;;;9.27;53.72;102492.95;1697532;83;21021;-55
2021/11/24 01:15:06;;;;;;;8.23;7.10;;;;;;;9.27;53.72;102491.23;1698037;83;21029;-62
2021/11/24 01:17:32;;;;;;;8.73;7.08;;;;;;;9.29;53.67;102493.84;1697609;83;21018;-57
2021/11/24 01:19:59;;;;;;;7.47;6.67;;;;;;;9.30;53.65;102493.84;1697364;83;21058;-57
2021/11/24 01:22:26;;;;;;;7.90;7.03;;;;;;;9.30;53.48;102496.45;1698278;83;21029;-59
2021/11/24 01:24:52;;;;;;;6.97;6.28;;;;;;;9.31;53.38;102495.61;1700469;84;21039;-58
2021/11/24 01:27:19;;;;;;;7.25;6.45;;;;;;;9.33;53.18;102493.02;1696504;84;21514;-61
2021/11/24 01:29:45;;;;;;;6.62;5.92;;;;;;;9.31;53.02;102486.52;1687882;84;20998;-59
2021/11/24 01:32:12;;;;;;;6.17;5.58;;;;;;;9.32;52.80;102482.16;1694483;84;21082;-59
2021/11/24 01:34:39;;;;;;;6.80;6.10;;;;;;;9.32;52.62;102488.24;1712669;81;21574;-57
2021/11/24 01:37:06;;;;;;;6.25;5.65;;;;;;;9.31;52.49;102487.81;1734247;81;21019;-55
2021/11/24 01:39:34;;;;;;;6.33;5.60;;;;;;;9.30;52.23;102495.15;1734259;81;21015;-55
2021/11/24 01:42:01;;;;;;;6.83;6.12;;;;;;;9.30;52.11;102501.64;1735267;82;21046;-58
2021/11/24 01:44:28;;;;;;;7.03;6.30;;;;;;;9.29;52.03;102492.13;1736421;81;20991;-54
2021/11/24 01:46:58;;;;;;;7.45;6.55;;;;;;;9.28;52.03;102500.75;1735976;81;20999;-56
2021/11/24 01:49:26;;;;;;;8.85;6.55;;;;;;;9.26;51.97;102501.16;1735419;81;21503;-59
2021/11/24 01:51:52;;;;;;;8.58;6.58;;;;;;;9.23;51.86;102505.04;1733339;81;20989;-58
2021/11/24 01:54:19;;;;;;;7.17;5.97;;;;;;;9.19;51.84;102500.63;1726459;81;21011;-58
2021/11/24 01:56:46;;;;;;;6.83;5.75;;;;;;;9.14;51.91;102497.13;1732181;82;21059;-55
2021/11/24 01:59:13;;;;;;;9.00;6.37;;;;;;;9.10;51.86;102491.45;1732161;81;21026;-55
2021/11/24 02:01:41;;;;;;;7.83;6.08;;;;;;;9.07;51.87;102492.70;1732994;81;21487;-59
2021/11/24 02:04:12;;;;;;;7.12;6.40;;;;;;;9.03;51.95;102490.92;1733656;81;20994;-58
2021/11/24 02:06:39;;;;;;;7.73;6.53;;;;;;;9.00;51.96;102490.45;1733538;81;21032;-58
2021/11/24 02:09:08;;;;;;;7.45;6.05;;;;;;;8.98;52.03;102491.31;1733616;81;21001;-58
2021/11/24 02:11:38;;;;;;;7.80;7.10;;;;;;;8.95;51.99;102496.03;1700804;84;21034;-54
2021/11/24 02:14:06;;;;;;;6.80;6.10;;;;;;;8.94;52.03;102493.43;1669678;85;21093;-54
2021/11/24 02:16:32;;;;;;;9.73;6.75;;;;;;;8.91;52.13;102494.26;1656369;84;21045;-58
2021/11/24 02:18:59;;;;;;;8.95;7.40;;;;;;;8.91;52.18;102498.56;1654749;84;21577;-55
2021/11/24 02:21:26;;;;;;;8.60;6.97;;;;;;;8.91;52.24;102502.46;1656201;85;21058;-59
2021/11/24 02:23:52;;;;;;;8.58;7.10;;;;;;;8.91;52.15;102501.16;1651742;86;21039;-58
2021/11/24 02:26:23;;;;;;;8.18;7.00;;;;;;;8.89;52.26;102502.87;1638075;85;21107;-55
2021/11/24 02:28:50;;;;;;;10.00;7.55;;;;;;;8.88;52.15;102507.63;1641803;85;21047;-57
2021/11/24 02:31:23;;;;;;;8.20;6.95;;;;;;;8.87;52.27;102508.05;1646985;86;21087;-61
2021/11/24 02:33:51;;;;;;;8.88;7.47;;;;;;;8.87;52.33;102509.77;1647253;85;21135;-55
2021/11/24 02:36:18;;;;;;;9.13;7.17;;;;;;;8.87;52.33;102509.77;1700223;82;21082;-59
2021/11/24 02:38:45;;;;;;;7.85;6.60;;;;;;;8.86;52.26;102510.64;1685794;82;21110;-55
2021/11/24 02:41:11;;;;;;;8.15;6.95;;;;;;;8.84;52.33;102509.30;1683382;83;21011;-55
2021/11/24 02:43:40;;;;;;;8.40;7.00;;;;;;;8.84;52.41;102525.32;1683510;83;21026;-58
2021/11/24 02:46:07;;;;;;;8.23;7.37;;;;;;;8.83;52.33;102519.66;1684189;84;20998;-57
2021/11/24 02:48:33;;;;;;;8.08;7.28;;;;;;;8.80;52.34;102519.61;1685351;83;21075;-58
2021/11/24 02:50:59;;;;;;;9.48;7.62;;;;;;;8.81;52.48;102525.27;1685177;83;20968;-57
2021/11/24 02:53:31;;;;;;;9.58;7.67;;;;;;;8.79;52.46;102531.73;1683213;83;21015;-56
2021/11/24 02:55:58;;;;;;;8.45;7.53;;;;;;;8.79;52.56;102529.56;1682840;83;21039;-55
2021/11/24 02:58:25;;;;;;;8.83;7.50;;;;;;;8.79;52.54;102532.16;1676143;83;21003;-59
2021/11/24 03:00:52;;;;;;;9.13;8.10;;;;;;;8.76;52.46;102526.91;1685194;83;21569;-62
2021/11/24 03:03:19;;;;;;;9.68;8.00;;;;;;;8.76;52.55;102526.91;1685279;83;20998;-55
2021/11/24 03:05:47;;;;;;;11.15;9.00;;;;;;;8.75;52.61;102532.97;1689381;83;21193;-54
2021/11/24 03:08:13;;;;;;;13.13;8.63;;;;;;;8.74;52.64;102531.20;1683887;83;21026;-58
2021/11/24 03:10:40;;;;;;;10.03;9.00;;;;;;;8.74;52.67;102538.98;1688646;84;21546;-57
2021/11/24 03:13:06;;;;;;;9.65;8.20;;;;;;;8.72;52.69;102544.59;1693999;83;21046;-59
2021/11/24 03:15:35;;;;;;;10.88;9.08;;;;;;;8.71;52.86;102541.56;1692271;83;21650;-62
2021/11/24 03:18:01;;;;;;;11.20;8.85;;;;;;;8.69;52.91;102541.97;1690175;83;21600;-58
2021/11/24 03:20:28;;;;;;;12.18;9.13;;;;;;;8.69;53.00;102543.27;1689461;83;21047;-59
2021/11/24 03:22:57;;;;;;;9.20;7.92;;;;;;;8.68;53.06;102547.98;1689602;83;21078;-55
2021/11/24 03:25:23;;;;;;;9.48;8.48;;;;;;;8.68;53.21;102548.87;1689901;83;21091;-59
2021/11/24 03:27:51;;;;;;;10.23;8.90;;;;;;;8.69;53.34;102544.56;1685699;84;21098;-59
2021/11/24 03:30:21;;;;;;;11.05;9.28;;;;;;;8.69;53.42;102551.05;1704641;82;21499;-56
2021/11/24 03:32:48;;;;;;;12.20;9.13;;;;;;;8.64;53.65;102550.09;1665326;85;21067;-58
2021/11/24 03:35:16;;;;;;;11.75;9.53;;;;;;;8.58;54.10;102557.80;1664571;85;21018;-56
2021/11/24 03:37:44;;;;;;;10.55;9.20;;;;;;;8.53;54.62;102567.25;1665605;85;20990;-58
2021/11/24 03:40:12;;;;;;;10.63;9.48;;;;;;;8.49;55.00;102570.64;1666909;85;21022;-59
2021/11/24 03:42:44;;;;;;;11.78;9.88;;;;;;;8.46;55.25;102570.58;1666992;85;21029;-54
2021/11/24 03:45:15;;;;;;;10.88;9.05;;;;;;;8.47;55.08;102571.05;1666261;85;21153;-54
2021/11/24 03:47:43;;;;;;;11.80;9.20;;;;;;;8.46;55.16;102580.95;1614758;87;21082;-56
2021/11/24 03:50:10;;;;;;;13.10;9.85;;;;;;;8.47;55.27;102577.53;1615105;87;21115;-58
2021/11/24 03:52:37;;;;;;;12.88;9.25;;;;;;;8.49;55.42;102578.42;1615584;88;21110;-54
2021/11/24 03:55:06;;;;;;;11.57;9.40;;;;;;;8.52;55.45;102586.23;1608469;87;21027;-58
2021/11/24 03:57:32;;;;;;;11.50;9.58;;;;;;;8.54;55.28;102583.24;1609074;87;21523;-58
2021/11/24 03:59:59;;;;;;;13.10;10.90;;;;;;;8.54;55.17;102581.95;1615983;88;21103;-62
2021/11/24 04:02:26;;;;;;;12.55;10.30;;;;;;;8.54;55.08;102581.95;1616582;87;21074;-58
2021/11/24 04:04:52;;;;;;;11.75;9.85;;;;;;;8.54;55.23;102583.24;1615659;87;21063;-59
2021/11/24 04:07:19;;;;;;;12.68;10.82;;;;;;;8.57;55.32;102587.20;1613964;87;21063;-57
2021/11/24 04:09:47;;;;;;;13.72;10.13;;;;;;;8.60;55.46;102589.82;1613698;87;21482;-57
2021/11/24 04:12:14;;;;;;;10.72;9.60;;;;;;;8.63;55.38;102590.77;1613868;87;21062;-54
2021/11/24 04:14:42;;;;;;;11.65;9.43;;;;;;;8.67;55.26;102595.57;1613694;87;21123;-53
2021/11/24 04:17:08;;;;;;;10.48;8.98;;;;;;;8.69;55.15;102597.77;1614609;87;21052;-58
2021/11/24 04:19:35;;;;;;;13.55;9.68;;;;;;;8.71;54.95;102598.66;1616428;87;21031;-57
2021/11/24 04:22:03;;;;;;;9.95;8.85;;;;;;;8.71;55.04;102599.95;1616595;87;21103;-57
2021/11/24 04:24:31;;;;;;;10.45;8.75;;;;;;;8.71;54.93;102596.94;1615110;87;21591;-59
2021/11/24 04:26:58;;;;;;;11.80;9.00;;;;;;;8.75;54.90;102600.45;1613794;88;21079;-58
2021/11/24 04:29:25;;;;;;;10.55;9.20;;;;;;;8.78;54.74;102600.47;1629370;84;21034;-57
2021/11/24 04:31:52;;;;;;;11.85;8.73;;;;;;;8.82;54.86;102606.19;1673061;84;21003;-57
2021/11/24 04:34:18;;;;;;;13.28;9.13;;;;;;;8.83;54.64;102606.20;1672845;84;21610;-55
2021/11/24 04:36:45;;;;;;;10.03;8.93;;;;;;;8.88;54.70;102605.83;1674914;84;21074;-58
2021/11/24 04:39:12;;;;;;;10.90;8.60;;;;;;;8.92;54.50;102609.37;1675460;85;21015;-60
2021/11/24 04:41:38;;;;;;;12.28;9.55;;;;;;;8.90;54.18;102617.56;1675792;84;21491;-54
2021/11/24 04:44:05;;;;;;;9.48;8.43;;;;;;;8.88;54.15;102620.11;1687064;83;21023;-61
2021/11/24 04:46:32;;;;;;;11.53;9.45;;;;;;;8.83;54.38;102615.29;1736809;81;20988;-54
2021/11/24 04:48:58;;;;;;;10.00;8.75;;;;;;;8.84;54.43;102626.55;1733143;81;21496;-57
2021/11/24 04:51:25;;;;;;;10.90;8.18;;;;;;;8.84;53.82;102627.85;1731885;81;21054;-53
2021/11/24 04:53:52;;;;;;;9.98;8.88;;;;;;;8.86;53.54;102628.75;1729386;81;21003;-53
2021/11/24 04:56:20;;;;;;;10.03;8.70;;;;;;;8.83;53.36;102633.46;1733834;81;21535;-60
2021/11/24 05:01:21;;;;;;;10.35;8.45;;;;;;;8.81;52.71;102636.87;1685988;85;21122;-57
2021/11/24 05:03:47;;;;;;;10.38;8.20;;;;;;;8.78;52.58;102636.81;1685908;85;21496;-55
2021/11/24 05:06:15;;;;;;;9.30;8.40;;;;;;;8.79;52.70;102645.06;1685748;85;21035;-57
2021/11/24 05:08:42;;;;;;;9.95;8.85;;;;;;;8.76;52.95;102647.59;1685940;85;21087;-57
2021/11/24 05:11:11;;;;;;;10.45;8.45;;;;;;;8.79;53.22;102648.54;1685830;85;21161;-56
2021/11/24 05:13:40;;;;;;;11.43;9.58;;;;;;;8.81;53.18;102653.75;1660241;85;21053;-57
2021/11/24 05:16:07;;;;;;;11.43;8.45;;;;;;;8.79;53.32;102650.26;1681337;85;21088;-57
2021/11/24 05:18:39;;;;;;;11.25;9.30;;;;;;;8.80;53.28;102651.56;1681255;85;21029;-54
2021/11/24 05:21:14;;;;;;;12.00;9.33;;;;;;;8.79;52.95;102654.15;1681092;85;21050;-59
2021/11/24 05:23:38;;;;;;;9.83;8.83;;;;;;;8.77;53.09;102657.15;1677687;85;21075;-58
2021/11/24 05:26:05;;;;;;;10.60;8.65;;;;;;;8.77;53.21;102658.45;1641956;87;21001;-58
2021/11/24 05:28:33;;;;;;;9.78;8.70;;;;;;;8.80;53.26;102662.37;1686061;85;21046;-53
2021/11/24 05:31:00;;;;;;;8.38;7.42;;;;;;;8.80;53.15;102661.07;1685755;85;21058;-60
2021/11/24 05:33:27;;;;;;;9.58;8.38;;;;;;;8.81;52.80;102674.52;1685951;85;21797;-54
2021/11/24 05:35:54;;;;;;;11.68;8.53;;;;;;;8.79;52.65;102678.81;1685636;85;21027;-57
2021/11/24 05:38:20;;;;;;;11.20;8.28;;;;;;;8.77;52.71;102684.40;1686008;85;21448;-57
2021/11/24 05:40:47;;;;;;;9.45;8.50;;;;;;;8.75;52.67;102686.09;1685787;85;21005;-54
2021/11/24 05:43:14;;;;;;;10.32;8.50;;;;;;;8.75;52.69;102692.59;1685866;85;20953;-54
2021/11/24 05:45:58;;;;;;;11.57;9.45;;;;;;;8.76;52.73;102693.02;1685878;85;21524;-55
2021/11/24 05:48:13;;;;;;;13.60;10.30;;;;;;;8.78;52.73;102699.11;1682657;85;21098;-58
2021/11/24 05:50:43;;;;;;;15.10;10.30;;;;;;;8.83;52.66;102698.77;1685701;85;21084;-54
2021/11/24 05:53:09;;;;;;;13.25;10.70;;;;;;;8.88;52.57;102701.03;1686108;85;21047;-54
2021/11/24 05:55:36;;;;;;;13.30;10.03;;;;;;;8.91;52.50;102705.84;1682166;85;21028;-58
2021/11/24 05:58:02;;;;;;;11.45;9.78;;;;;;;8.94;52.68;102704.58;1724501;81;21054;-57
2021/11/24 06:00:29;;;;;;;11.35;9.80;;;;;;;9.00;52.98;102712.91;1704281;83;21034;-57
2021/11/24 06:02:55;;;;;;;12.10;9.83;;;;;;;9.09;53.20;102715.63;1699914;84;21034;-57
2021/11/24 06:05:22;;;;;;;14.13;11.10;;;;;;;9.21;53.17;102723.59;1699978;84;21466;-53
2021/11/24 06:07:48;;;;;;;12.80;10.25;;;;;;;9.33;53.03;102723.81;1687683;83;21008;-60
2021/11/24 06:10:15;;;;;;;11.50;10.03;;;;;;;9.46;52.78;102725.71;1687141;83;21012;-58
2021/11/24 06:12:42;;;;;;;11.93;9.73;;;;;;;9.56;52.46;102731.92;1738262;81;21010;-53
2021/11/24 06:15:16;;;;;;;12.10;10.80;;;;;;;9.64;52.22;102725.95;1732315;81;21463;-54
2021/11/24 06:17:44;;;;;;;10.63;9.55;;;;;;;9.75;52.11;102732.59;1732515;81;21512;-60
2021/11/24 06:20:12;;;;;;;14.70;10.08;;;;;;;9.82;52.04;102739.22;1731888;81;21575;-57
2021/11/24 06:22:39;;;;;;;10.80;9.55;;;;;;;9.80;52.12;102738.33;1725492;82;21027;-54
2021/11/24 06:25:07;;;;;;;13.60;11.03;;;;;;;9.77;52.15;102731.77;1728538;81;21360;-54
2021/11/24 06:27:35;;;;;;;14.73;10.25;;;;;;;9.73;52.27;102740.39;1731647;81;21054;-58
2021/11/24 06:30:02;;;;;;;11.88;10.40;;;;;;;9.69;52.47;102738.59;1732729;81;20967;-55
2021/11/24 06:32:29;;;;;;;14.98;10.60;;;;;;;9.69;52.69;102737.30;1732259;81;21074;-58
2021/11/24 06:34:55;;;;;;;10.00;8.85;;;;;;;9.71;52.79;102739.49;1734518;81;21026;-55
2021/11/24 06:37:22;;;;;;;12.88;10.13;;;;;;;9.74;52.68;102749.95;1735984;81;21538;-53
2021/11/24 06:39:49;;;;;;;11.80;9.00;;;;;;;9.75;52.67;102752.98;1735509;81;20991;-57
2021/11/24 06:42:16;;;;;;;10.65;9.15;;;;;;;9.78;52.27;102751.73;1733357;81;21059;-54
2021/11/24 06:44:42;;;;;;;10.45;8.85;;;;;;;9.77;52.13;102750.39;1699926;84;21526;-54
2021/11/24 06:47:13;;;;;;;10.85;9.28;;;;;;;9.75;52.20;102746.48;1700925;83;21015;-58
2021/11/24 06:49:39;;;;;;;12.18;10.13;;;;;;;9.75;52.28;102749.08;1700811;84;21515;-60
2021/11/24 06:52:06;;;;;;;10.32;9.33;;;;;;;9.76;52.45;102750.84;1736057;81;20998;-59
2021/11/24 06:54:34;;;;;;;11.38;9.20;;;;;;;9.81;52.61;102751.75;1723352;81;21058;-57
2021/11/24 06:57:01;;;;;;;9.50;8.50;;;;;;;9.82;52.41;102752.64;1730077;82;21038;-57
2021/11/24 06:59:28;;;;;;;11.22;9.70;;;;;;;9.79;52.46;102750.86;1698725;84;21007;-54
2021/11/24 07:01:55;;;;;;;10.75;9.05;;;;;;;9.76;52.51;102746.94;1682970;84;21537;-58
2021/11/24 07:04:21;;;;;;;10.72;9.63;;;;;;;9.75;52.78;102743.88;1699696;83;21026;-54
2021/11/24 07:06:48;;;;;;;11.73;9.40;;;;;;;9.78;52.91;102747.83;1696292;83;20985;-54
2021/11/24 07:09:14;;;;;;;9.55;8.55;;;;;;;9.81;52.76;102751.75;1699052;83;21110;-58
2021/11/24 07:11:41;;;;;;;10.80;8.55;;;;;;;9.82;52.61;102752.22;1701745;83;21471;-57
2021/11/24 07:14:08;;;;;;;9.75;8.75;;;;;;;9.84;52.50;102763.52;1700138;84;21045;-57
2021/11/24 07:16:37;;;;;;;10.90;9.00;;;;;;;9.83;52.45;102759.56;1697931;83;21049;-59
2021/11/24 07:19:03;;;;;;;10.53;8.83;;;;;;;9.81;52.54;102754.36;1699727;83;20971;-56
2021/11/24 07:21:30;;;;;;;11.70;9.18;;;;;;;9.85;52.63;102753.95;1700295;83;21046;-58
2021/11/24 07:23:57;;;;;;;10.60;8.88;;;;;;;9.86;52.57;102758.32;1700956;84;21473;-60
2021/11/24 07:26:24;;;;;;;12.73;9.68;;;;;;;9.88;52.28;102760.52;1691285;84;20982;-58
2021/11/24 07:28:50;;;;;;;9.75;8.53;;;;;;;9.85;52.21;102766.55;1695627;83;21577;-57
2021/11/24 07:31:17;;;;;;;10.15;8.85;;;;;;;9.87;52.48;102767.00;1698560;84;21042;-54
2021/11/24 07:33:44;;;;;;;9.48;7.65;;;;;;;9.89;52.59;102770.50;1701620;84;21065;-57
2021/11/24 07:36:10;;;;;;;8.90;8.00;;;;;;;9.90;52.09;102769.63;1713811;82;20963;-55
2021/11/24 07:38:37;;;;;;;8.83;7.90;;;;;;;9.88;52.03;102769.61;1708074;84;21089;-55
2021/11/24 07:41:03;;;;;;;9.63;8.60;;;;;;;9.87;51.75;102770.91;1696801;84;21597;-54
2021/11/24 07:43:31;;;;;;;8.95;7.87;;;;;;;9.83;51.76;102774.75;1699791;84;21016;-57
2021/11/24 07:45:58;;;;;;;10.28;8.65;;;;;;;9.80;51.70;102774.73;1688174;84;21053;-57
2021/11/24 07:48:25;;;;;;;9.40;8.38;;;;;;;9.79;51.76;102783.78;1700447;84;21011;-57
2021/11/24 07:50:52;;;;;;;9.55;8.50;;;;;;;9.82;51.93;102786.44;1698091;84;21550;-57
2021/11/24 07:53:19;;;;;;;9.48;7.92;;;;;;;9.88;51.93;102787.81;1699077;83;21090;-58
2021/11/24 07:55:46;;;;;;;8.98;8.08;;;;;;;9.92;51.75;102791.32;1700510;84;21057;-58
2021/11/24 07:58:14;;;;;;;10.68;8.88;;;;;;;9.93;51.88;102795.69;1687854;84;20990;-54
2021/11/24 08:00:41;;;;;;;9.35;8.10;;;;;;;9.93;51.81;102799.59;1698016;83;20990;-58
2021/11/24 08:03:07;;;;;;;9.48;8.30;;;;;;;9.91;51.48;102799.99;1697983;83;21060;-55
2021/11/24 08:05:34;;;;;;;10.88;8.23;;;;;;;9.90;51.59;102803.43;1703114;84;21566;-57
2021/11/24 08:08:01;;;;;;;9.95;8.35;;;;;;;9.94;51.43;102811.72;1700156;84;21038;-54
2021/11/24 08:10:28;;;;;;;9.50;7.97;;;;;;;9.96;51.28;102807.41;1700655;84;20991;-54
2021/11/24 08:12:54;;;;;;;12.40;8.28;;;;;;;9.97;50.98;102798.77;1733782;81;21465;-57
2021/11/24 08:15:21;;;;;;;9.05;8.15;;;;;;;9.98;50.86;102797.91;1732337;81;21047;-55
2021/11/24 08:17:47;;;;;;;9.30;7.83;;;;;;;9.97;50.83;102805.27;1733222;81;21015;-54
2021/11/24 08:20:16;;;;;;;9.73;8.70;;;;;;;9.97;50.82;102804.86;1733060;81;21035;-59
2021/11/24 08:22:44;;;;;;;9.78;8.40;;;;;;;10.01;50.87;102805.34;1733291;81;21039;-55
2021/11/24 08:25:11;;;;;;;10.10;8.95;;;;;;;10.08;50.96;102802.36;1735090;81;21023;-54
2021/11/24 08:27:39;;;;;;;12.33;8.38;;;;;;;10.15;50.67;102797.31;1731906;82;21562;-59
2021/11/24 08:30:07;;;;;;;9.05;8.15;;;;;;;10.21;50.54;102795.20;1726820;81;21038;-54
2021/11/24 08:32:34;;;;;;;8.73;7.83;;;;;;;10.24;50.46;102792.20;1733375;81;21519;-57
2021/11/24 08:35:01;;;;;;;9.70;8.43;;;;;;;10.29;50.42;102790.54;1734930;81;21579;-58
2021/11/24 08:37:27;;;;;;;9.58;8.40;;;;;;;10.32;50.35;102795.80;1736393;81;21050;-54
2021/11/24 08:39:54;;;;;;;10.85;8.78;;;;;;;10.38;50.33;102792.37;1735656;81;21057;-54
2021/11/24 08:42:25;;;;;;;9.58;8.40;;;;;;;10.46;50.21;102790.73;1733367;81;20990;-58
2021/11/24 08:44:50;;;;;;;8.95;8.05;;;;;;;10.56;50.04;102784.77;1695126;84;20975;-57
2021/11/24 08:47:16;;;;;;;10.72;8.43;;;;;;;10.62;49.78;102778.31;1699915;84;21094;-55
2021/11/24 08:49:43;;;;;;;11.85;9.28;;;;;;;10.68;49.57;102780.98;1700489;84;21570;-60
2021/11/24 08:52:10;;;;;;;12.20;8.98;;;;;;;10.73;49.10;102785.82;1699719;84;21034;-52
2021/11/24 08:54:37;;;;;;;13.95;11.10;;;;;;;10.77;48.53;102798.02;1688244;84;21105;-56
2021/11/24 08:57:05;;;;;;;14.20;11.53;;;;;;;10.77;48.01;102791.50;1688276;84;21023;-53
2021/11/24 08:59:32;;;;;;;30.08;21.82;;;;;;;10.77;47.96;102791.50;1744072;80;21530;-52
2021/11/24 09:01:58;;;;;;;39.48;24.20;;;;;;;10.79;47.42;102795.41;1743985;80;21018;-57
2021/11/24 09:04:25;;;;;;;41.40;25.82;;;;;;;10.77;46.94;102786.71;1742012;80;21079;-56
2021/11/24 09:06:51;;;;;;;21.35;15.38;;;;;;;10.77;46.94;102787.59;1732938;81;21003;-57
2021/11/24 09:09:18;;;;;;;12.00;9.80;;;;;;;10.76;46.60;102791.04;1733283;81;21010;-60
2021/11/24 09:11:44;;;;;;;7.78;6.65;;;;;;;10.76;46.37;102797.55;1706398;83;21591;-54
2021/11/24 09:14:12;;;;;;;7.15;6.10;;;;;;;10.79;46.06;102804.53;1692359;83;21071;-54
2021/11/24 09:16:40;;;;;;;6.67;5.97;;;;;;;10.79;45.82;102801.50;1690117;83;21106;-55
2021/11/24 09:19:06;;;;;;;7.70;6.87;;;;;;;10.81;45.37;102795.87;1697564;83;21007;-54
2021/11/24 09:21:33;;;;;;;8.83;6.67;;;;;;;10.83;45.48;102788.07;1691271;84;21023;-57
2021/11/24 09:24:04;;;;;;;9.43;7.15;;;;;;;10.87;45.68;102788.55;1685209;83;21067;-61
2021/11/24 09:29:01;;;;;;;6.55;5.92;;;;;;;10.92;45.76;102802.04;1643388;87;21055;-57
2021/11/24 09:31:27;;;;;;;10.82;8.63;;;;;;;10.97;45.62;102797.77;1633565;87;21121;-58
2021/11/24 09:33:54;;;;;;;7.95;6.90;;;;;;;11.03;45.29;102794.33;1634426;87;21614;-58
2021/11/24 09:36:20;;;;;;;8.60;7.00;;;;;;;11.09;45.28;102793.95;1627933;87;21059;-54
2021/11/24 09:38:49;;;;;;;6.35;5.75;;;;;;;11.16;44.43;102801.40;1637412;87;21051;-59
2021/11/24 09:41:16;;;;;;;6.33;5.62;;;;;;;11.19;44.41;102804.89;1627381;87;21046;-61
2021/11/24 09:43:50;;;;;;;7.40;6.70;;;;;;;11.20;44.52;102813.17;1634716;87;21604;-54
2021/11/24 09:46:17;;;;;;;6.20;5.60;;;;;;;11.21;44.54;102812.29;1631910;87;21078;-57
2021/11/24 09:48:47;;;;;;;6.83;6.00;;;;;;;11.22;44.46;102811.45;1631889;87;21609;-57
2021/11/24 09:51:14;;;;;;;7.08;6.08;;;;;;;11.20;44.17;102809.26;1634921;87;21129;-56
2021/11/24 09:53:42;;;;;;;11.22;10.05;;;;;;;11.20;44.17;102812.28;1634938;87;21070;-58
2021/11/24 09:56:08;;;;;;;10.63;9.30;;;;;;;11.19;44.08;102808.80;1631285;86;21511;-53
2021/11/24 09:58:35;;;;;;;7.35;6.53;;;;;;;11.19;43.59;102811.41;1638587;87;21074;-57
2021/11/24 10:01:03;;;;;;;6.60;5.85;;;;;;;11.19;43.17;102812.71;1634546;87;21106;-60
2021/11/24 10:03:31;;;;;;;5.15;4.65;;;;;;;11.15;42.86;102804.42;1633049;87;21098;-54
2021/11/24 10:05:58;;;;;;;5.92;5.33;;;;;;;11.14;42.86;102800.52;1650431;83;21582;-53
2021/11/24 10:08:25;;;;;;;6.35;5.75;;;;;;;11.12;42.84;102802.23;1683981;83;20992;-56
2021/11/24 10:10:51;;;;;;;5.65;4.30;;;;;;;11.11;42.72;102807.87;1684833;84;21567;-53
2021/11/24 10:13:19;;;;;;;4.35;3.95;;;;;;;11.10;42.56;102812.66;1724386;82;20995;-57
2021/11/24 10:15:55;;;;;;;4.42;3.65;;;;;;;11.09;42.34;102814.80;1700512;84;20991;-54
2021/11/24 10:18:35;;;;;;;4.37;3.62;;;;;;;11.05;42.20;102806.94;1700413;84;21007;-53
2021/11/24 10:21:15;;;;;;;4.70;3.87;;;;;;;11.02;41.83;102807.81;1661760;85;21066;-56
2021/11/24 10:23:44;;;;;;;3.87;3.20;;;;;;;10.99;41.27;102809.06;1661371;85;21046;-56
2021/11/24 10:26:29;;;;;;;3.77;3.35;;;;;;;10.96;41.18;102804.27;1664270;85;21042;-56
2021/11/24 10:29:11;;;;;;;4.05;3.17;;;;;;;10.93;41.05;102805.11;1672569;86;21062;-57
2021/11/24 10:31:52;;;;;;;7.85;4.00;;;;;;;10.91;41.08;102804.22;1652285;86;21042;-53
2021/11/24 10:34:35;;;;;;;3.67;3.33;;;;;;;10.87;40.84;102803.75;1640458;85;21078;-60
2021/11/24 10:37:15;;;;;;;6.33;2.98;;;;;;;10.85;40.89;102798.07;1648888;84;21896;-56
2021/11/24 10:39:51;;;;;;;4.07;3.10;;;;;;;10.84;40.99;102804.16;1647369;85;21550;-56
2021/11/24 10:42:33;;;;;;;3.40;3.10;;;;;;;10.84;40.67;102793.28;1649308;85;21049;-54
2021/11/24 10:45:18;;;;;;;4.83;3.52;;;;;;;10.87;40.46;102794.63;1648753;85;21102;-56
2021/11/24 10:47:59;;;;;;;3.65;3.05;;;;;;;10.88;40.38;102798.12;1647386;85;21484;-54
2021/11/24 10:50:28;;;;;;;3.62;3.27;;;;;;;10.89;40.05;102798.12;1653214;85;21078;-53
2021/11/24 10:52:56;;;;;;;2.80;2.60;;;;;;;10.90;40.15;102790.73;1649202;87;21019;-57
2021/11/24 10:55:30;;;;;;;6.22;3.35;;;;;;;10.91;39.81;102785.98;1651027;86;21027;-53
2021/11/24 10:58:24;;;;;;;4.67;2.70;;;;;;;10.91;40.17;102787.29;1647969;85;21117;-53
2021/11/24 11:00:52;;;;;;;3.37;2.95;;;;;;;10.93;40.05;102793.38;1646460;85;21017;-56
2021/11/24 11:03:21;;;;;;;2.95;2.72;;;;;;;10.97;40.00;102792.97;1648080;85;21025;-53
2021/11/24 11:05:51;;;;;;;4.03;3.10;;;;;;;10.97;39.95;102788.64;1632723;87;21113;-54
2021/11/24 11:08:18;;;;;;;4.92;2.80;;;;;;;10.98;40.09;102785.20;1639619;86;21570;-53
2021/11/24 11:10:49;;;;;;;3.62;3.33;;;;;;;11.02;40.06;102784.36;1663378;86;21077;-56
2021/11/24 11:13:20;;;;;;;3.62;3.33;;;;;;;11.01;39.80;102782.59;1648521;85;21073;-56
2021/11/24 11:15:50;;;;;;;3.05;2.85;;;;;;;11.01;39.65;102783.02;1608225;88;21174;-54
2021/11/24 11:18:26;;;;;;;3.75;3.02;;;;;;;11.00;39.59;102783.48;1598502;89;21555;-53
2021/11/24 11:21:00;;;;;;;3.22;2.92;;;;;;;11.01;39.64;102782.59;1643041;86;21045;-53
2021/11/24 11:23:36;;;;;;;3.50;2.95;;;;;;;11.03;39.55;102783.48;1648655;86;21049;-56
2021/11/24 11:26:08;;;;;;;3.22;2.87;;;;;;;11.05;39.37;102783.48;1652679;85;21076;-53
2021/11/24 11:28:52;;;;;;;3.72;2.90;;;;;;;11.03;39.01;102786.09;1645871;86;21085;-57
2021/11/24 11:31:21;;;;;;;3.37;3.08;;;;;;;11.03;39.38;102782.19;1530399;93;21039;-56
2021/11/24 11:33:55;;;;;;;5.12;4.10;;;;;;;11.02;39.13;102775.24;1543440;92;21131;-57
2021/11/24 11:36:23;;;;;;;4.37;3.98;;;;;;;11.01;39.13;102777.39;1520201;93;21142;-54